sensor_id;sensor_type;location;lat;lon;timestamp;pressure;altitude;pressure_sealevel;temperature;humidity
75717;BME280;64333;50.138;14.332;2022-12-16T00:01:24;97242.25;;;-3.30;80.40
75717;BME280;64333;50.138;14.332;2022-12-16T00:03:52;97236.34;;;-3.29;80.08
75717;BME280;64333;50.138;14.332;2022-12-16T00:06:19;97233.81;;;-3.28;79.86
75717;BME280;64333;50.138;14.332;2022-12-16T00:08:44;97233.81;;;-3.29;80.18
75717;BME280;64333;50.138;14.332;2022-12-16T00:11:10;97241.44;;;-3.32;80.50
75717;BME280;64333;50.138;14.332;2022-12-16T00:13:37;97241.47;;;-3.35;80.64
75717;BME280;64333;50.138;14.332;2022-12-16T00:16:06;97228.00;;;-3.34;80.33
75717;BME280;64333;50.138;14.332;2022-12-16T00:18:32;97218.66;;;-3.26;80.54
75717;BME280;64333;50.138;14.332;2022-12-16T00:20:57;97205.19;;;-3.25;80.72
75717;BME280;64333;50.138;14.332;2022-12-16T00:23:23;97183.25;;;-3.17;80.54
75717;BME280;64333;50.138;14.332;2022-12-16T00:25:48;97189.91;;;-3.10;80.17
75717;BME280;64333;50.138;14.332;2022-12-16T00:28:15;97189.97;;;-3.13;80.32
75717;BME280;64333;50.138;14.332;2022-12-16T00:30:42;97191.69;;;-3.20;80.89
75717;BME280;64333;50.138;14.332;2022-12-16T00:33:07;97195.88;;;-3.14;80.46
75717;BME280;64333;50.138;14.332;2022-12-16T00:35:33;97198.38;;;-3.14;80.87
75717;BME280;64333;50.138;14.332;2022-12-16T00:37:58;97190.78;;;-3.13;80.55
75717;BME280;64333;50.138;14.332;2022-12-16T00:40:25;97186.59;;;-3.12;80.48
75717;BME280;64333;50.138;14.332;2022-12-16T00:42:50;97186.53;;;-3.09;80.39
75717;BME280;64333;50.138;14.332;2022-12-16T00:45:16;97178.09;;;-3.05;80.54
75717;BME280;64333;50.138;14.332;2022-12-16T00:47:41;97174.66;;;-2.97;80.77
75717;BME280;64333;50.138;14.332;2022-12-16T00:50:07;97167.03;;;-2.92;80.34
75717;BME280;64333;50.138;14.332;2022-12-16T00:52:33;97169.56;;;-2.92;80.33
75717;BME280;64333;50.138;14.332;2022-12-16T00:54:58;97156.19;;;-2.99;80.59
75717;BME280;64333;50.138;14.332;2022-12-16T00:57:24;97162.00;;;-2.94;81.60
75717;BME280;64333;50.138;14.332;2022-12-16T00:59:49;97166.13;;;-2.85;81.32
75717;BME280;64333;50.138;14.332;2022-12-16T01:02:15;97167.00;;;-2.89;81.13
75717;BME280;64333;50.138;14.332;2022-12-16T01:04:40;97174.50;;;-2.83;81.06
75717;BME280;64333;50.138;14.332;2022-12-16T01:07:06;97164.41;;;-2.80;80.81
75717;BME280;64333;50.138;14.332;2022-12-16T01:09:31;97155.09;;;-2.75;80.10
75717;BME280;64333;50.138;14.332;2022-12-16T01:11:58;97155.06;;;-2.74;80.83
75717;BME280;64333;50.138;14.332;2022-12-16T01:14:23;97145.78;;;-2.72;81.11
75717;BME280;64333;50.138;14.332;2022-12-16T01:16:48;97149.13;;;-2.68;79.99
75717;BME280;64333;50.138;14.332;2022-12-16T01:19:13;97149.13;;;-2.68;80.66
75717;BME280;64333;50.138;14.332;2022-12-16T01:21:39;97151.59;;;-2.67;80.78
75717;BME280;64333;50.138;14.332;2022-12-16T01:24:04;97157.47;;;-2.63;81.70
75717;BME280;64333;50.138;14.332;2022-12-16T01:26:30;97149.06;;;-2.62;81.31
75717;BME280;64333;50.138;14.332;2022-12-16T01:28:56;97152.63;;;-2.81;81.08
75717;BME280;64333;50.138;14.332;2022-12-16T01:31:21;97143.44;;;-2.91;81.88
75717;BME280;64333;50.138;14.332;2022-12-16T01:33:47;97147.53;;;-2.78;81.31
75717;BME280;64333;50.138;14.332;2022-12-16T01:36:13;97146.72;;;-2.83;82.58
75717;BME280;64333;50.138;14.332;2022-12-16T01:38:41;97144.19;;;-2.80;81.57
75717;BME280;64333;50.138;14.332;2022-12-16T01:41:08;97132.34;;;-2.75;81.20
75717;BME280;64333;50.138;14.332;2022-12-16T01:43:36;97130.66;;;-2.75;81.59
75717;BME280;64333;50.138;14.332;2022-12-16T01:46:22;97127.25;;;-2.74;81.64
75717;BME280;64333;50.138;14.332;2022-12-16T01:49:04;97134.03;;;-2.74;81.62
75717;BME280;64333;50.138;14.332;2022-12-16T01:51:36;97125.59;;;-2.76;82.10
75717;BME280;64333;50.138;14.332;2022-12-16T01:54:09;97121.41;;;-2.74;81.79
75717;BME280;64333;50.138;14.332;2022-12-16T01:56:39;97120.50;;;-2.70;82.04
75717;BME280;64333;50.138;14.332;2022-12-16T01:59:06;97122.16;;;-2.69;81.94
75717;BME280;64333;50.138;14.332;2022-12-16T02:01:32;97126.41;;;-2.70;82.10
75717;BME280;64333;50.138;14.332;2022-12-16T02:04:00;97136.44;;;-2.67;82.48
75717;BME280;64333;50.138;14.332;2022-12-16T02:06:27;97127.25;;;-2.71;81.98
75717;BME280;64333;50.138;14.332;2022-12-16T02:08:56;97110.44;;;-2.72;82.99
75717;BME280;64333;50.138;14.332;2022-12-16T02:17:08;97115.38;;;-2.64;81.71
75717;BME280;64333;50.138;14.332;2022-12-16T02:36:10;97119.78;;;-2.81;83.74
75717;BME280;64333;50.138;14.332;2022-12-16T02:38:55;97123.19;;;-2.82;83.40
75717;BME280;64333;50.138;14.332;2022-12-16T02:43:58;97110.44;;;-2.76;83.60
75717;BME280;64333;50.138;14.332;2022-12-16T02:46:28;97112.97;;;-2.76;84.35
75717;BME280;64333;50.138;14.332;2022-12-16T02:48:56;97118.06;;;-2.79;83.82
75717;BME280;64333;50.138;14.332;2022-12-16T02:51:24;97115.50;;;-2.76;84.98
75717;BME280;64333;50.138;14.332;2022-12-16T02:53:52;97113.03;;;-2.81;84.36
75717;BME280;64333;50.138;14.332;2022-12-16T02:59:06;97120.56;;;-2.76;84.27
75717;BME280;64333;50.138;14.332;2022-12-16T03:04:26;97121.34;;;-2.68;85.39
75717;BME280;64333;50.138;14.332;2022-12-16T03:06:56;97112.84;;;-2.66;84.46
75717;BME280;64333;50.138;14.332;2022-12-16T03:09:27;97113.69;;;-2.62;84.44
75717;BME280;64333;50.138;14.332;2022-12-16T03:11:54;97111.97;;;-2.60;84.71
75717;BME280;64333;50.138;14.332;2022-12-16T03:14:26;97114.44;;;-2.54;84.09
75717;BME280;64333;50.138;14.332;2022-12-16T03:16:52;97121.13;;;-2.52;84.06
75717;BME280;64333;50.138;14.332;2022-12-16T03:19:19;97115.19;;;-2.48;83.92
75717;BME280;64333;50.138;14.332;2022-12-16T03:22:06;97115.94;;;-2.41;84.42
75717;BME280;64333;50.138;14.332;2022-12-16T03:24:33;97118.44;;;-2.38;84.17
75717;BME280;64333;50.138;14.332;2022-12-16T03:27:21;97120.88;;;-2.31;84.26
75717;BME280;64333;50.138;14.332;2022-12-16T03:32:37;97127.53;;;-2.25;83.10
75717;BME280;64333;50.138;14.332;2022-12-16T03:35:18;97129.19;;;-2.21;84.27
75717;BME280;64333;50.138;14.332;2022-12-16T03:37:47;97126.59;;;-2.20;83.91
75717;BME280;64333;50.138;14.332;2022-12-16T03:40:14;97129.06;;;-2.14;83.63
75717;BME280;64333;50.138;14.332;2022-12-16T03:42:41;97130.72;;;-2.13;83.78
75717;BME280;64333;50.138;14.332;2022-12-16T03:45:11;97136.59;;;-2.09;83.61
75717;BME280;64333;50.138;14.332;2022-12-16T03:47:38;97137.50;;;-2.12;83.52
75717;BME280;64333;50.138;14.332;2022-12-16T03:50:04;97132.38;;;-2.10;83.53
75717;BME280;64333;50.138;14.332;2022-12-16T03:52:29;97129.03;;;-2.11;83.77
75717;BME280;64333;50.138;14.332;2022-12-16T03:54:55;97130.69;;;-2.08;84.33
75717;BME280;64333;50.138;14.332;2022-12-16T03:57:21;97139.91;;;-2.04;83.60
75717;BME280;64333;50.138;14.332;2022-12-16T03:59:46;97137.28;;;-2.00;84.12
75717;BME280;64333;50.138;14.332;2022-12-16T04:02:11;97135.63;;;-2.01;84.02
75717;BME280;64333;50.138;14.332;2022-12-16T04:04:37;97140.69;;;-1.99;83.67
75717;BME280;64333;50.138;14.332;2022-12-16T04:07:02;97129.78;;;-2.04;83.46
75717;BME280;64333;50.138;14.332;2022-12-16T04:09:48;97117.22;;;-2.10;83.70
75717;BME280;64333;50.138;14.332;2022-12-16T04:12:14;97119.63;;;-2.01;84.29
75717;BME280;64333;50.138;14.332;2022-12-16T04:14:58;97107.84;;;-2.02;83.69
75717;BME280;64333;50.138;14.332;2022-12-16T04:17:42;97109.47;;;-1.98;83.86
75717;BME280;64333;50.138;14.332;2022-12-16T04:20:51;97124.63;;;-1.95;83.91
75717;BME280;64333;50.138;14.332;2022-12-16T04:23:36;97105.22;;;-1.96;84.00
75717;BME280;64333;50.138;14.332;2022-12-16T04:26:25;97100.13;;;-1.93;84.10
75717;BME280;64333;50.138;14.332;2022-12-16T04:28:50;97106.75;;;-1.86;84.29
75717;BME280;64333;50.138;14.332;2022-12-16T04:31:15;97104.25;;;-1.88;84.63
75717;BME280;64333;50.138;14.332;2022-12-16T04:33:41;97097.59;;;-1.93;84.53
75717;BME280;64333;50.138;14.332;2022-12-16T04:36:25;97101.81;;;-1.94;83.56
75717;BME280;64333;50.138;14.332;2022-12-16T04:39:09;97101.06;;;-2.00;83.60
75717;BME280;64333;50.138;14.332;2022-12-16T04:42:09;97120.34;;;-1.92;83.84
75717;BME280;64333;50.138;14.332;2022-12-16T04:44:53;97104.28;;;-1.89;83.99
75717;BME280;64333;50.138;14.332;2022-12-16T04:47:37;97097.59;;;-1.93;84.32
75717;BME280;64333;50.138;14.332;2022-12-16T04:50:21;97101.88;;;-1.98;84.05
75717;BME280;64333;50.138;14.332;2022-12-16T04:53:05;97114.53;;;-2.00;83.92
75717;BME280;64333;50.138;14.332;2022-12-16T04:55:49;97127.16;;;-1.95;83.94
75717;BME280;64333;50.138;14.332;2022-12-16T04:58:33;97139.75;;;-1.92;85.07
75717;BME280;64333;50.138;14.332;2022-12-16T05:01:17;97138.78;;;-1.85;83.77
75717;BME280;64333;50.138;14.332;2022-12-16T05:04:01;97141.31;;;-1.85;83.70
75717;BME280;64333;50.138;14.332;2022-12-16T05:06:45;97133.66;;;-1.81;83.92
75717;BME280;64333;50.138;14.332;2022-12-16T05:09:29;97122.72;;;-1.81;83.45
75717;BME280;64333;50.138;14.332;2022-12-16T05:12:13;97128.09;;;-2.02;84.86
75717;BME280;64333;50.138;14.332;2022-12-16T05:14:57;97124.53;;;-1.89;84.95
75717;BME280;64333;50.138;14.332;2022-12-16T05:17:41;97133.72;;;-1.84;83.81
75717;BME280;64333;50.138;14.332;2022-12-16T05:20:25;97121.94;;;-1.86;83.89
75717;BME280;64333;50.138;14.332;2022-12-16T05:23:09;97131.34;;;-1.94;84.09
75717;BME280;64333;50.138;14.332;2022-12-16T05:25:53;97132.94;;;-1.87;84.93
75717;BME280;64333;50.138;14.332;2022-12-16T05:28:36;97151.44;;;-1.84;84.59
75717;BME280;64333;50.138;14.332;2022-12-16T05:31:20;97161.50;;;-1.81;84.23
75717;BME280;64333;50.138;14.332;2022-12-16T05:34:04;97160.78;;;-1.89;84.87
75717;BME280;64333;50.138;14.332;2022-12-16T05:36:48;97155.63;;;-1.84;84.39
75717;BME280;64333;50.138;14.332;2022-12-16T05:39:32;97143.78;;;-1.81;85.01
75717;BME280;64333;50.138;14.332;2022-12-16T05:42:16;97132.84;;;-1.81;84.45
75717;BME280;64333;50.138;14.332;2022-12-16T05:45:00;97125.50;;;-1.98;85.46
75717;BME280;64333;50.138;14.332;2022-12-16T05:47:47;97125.50;;;-1.98;85.92
75717;BME280;64333;50.138;14.332;2022-12-16T05:50:31;97126.28;;;-1.94;86.54
75717;BME280;64333;50.138;14.332;2022-12-16T05:53:22;97103.84;;;-2.17;85.93
75717;BME280;64333;50.138;14.332;2022-12-16T05:56:06;97119.59;;;-2.00;85.92
75717;BME280;64333;50.138;14.332;2022-12-16T05:58:50;97135.53;;;-1.92;85.68
75717;BME280;64333;50.138;14.332;2022-12-16T06:01:34;97130.41;;;-1.87;85.66
75717;BME280;64333;50.138;14.332;2022-12-16T06:04:18;97124.66;;;-1.98;85.00
75717;BME280;64333;50.138;14.332;2022-12-16T06:07:02;97145.69;;;-1.96;85.13
75717;BME280;64333;50.138;14.332;2022-12-16T06:09:45;97152.38;;;-1.91;84.74
75717;BME280;64333;50.138;14.332;2022-12-16T06:12:29;97154.84;;;-1.86;85.00
75717;BME280;64333;50.138;14.332;2022-12-16T06:15:13;97163.28;;;-1.86;83.93
75717;BME280;64333;50.138;14.332;2022-12-16T06:17:57;97156.59;;;-1.91;83.84
75717;BME280;64333;50.138;14.332;2022-12-16T06:20:42;97147.31;;;-1.89;83.81
75717;BME280;64333;50.138;14.332;2022-12-16T06:23:26;97156.56;;;-1.88;83.31
75717;BME280;64333;50.138;14.332;2022-12-16T06:26:11;97141.31;;;-1.85;84.50
75717;BME280;64333;50.138;14.332;2022-12-16T06:28:56;97137.97;;;-1.86;83.30
75717;BME280;64333;50.138;14.332;2022-12-16T06:31:39;97143.06;;;-1.90;83.36
75717;BME280;64333;50.138;14.332;2022-12-16T06:34:23;97147.31;;;-1.89;83.23
75717;BME280;64333;50.138;14.332;2022-12-16T06:37:07;97151.53;;;-1.93;83.26
75717;BME280;64333;50.138;14.332;2022-12-16T06:39:51;97161.63;;;-1.91;83.45
75717;BME280;64333;50.138;14.332;2022-12-16T06:42:39;97159.13;;;-1.91;83.86
75717;BME280;64333;50.138;14.332;2022-12-16T06:45:22;97162.50;;;-1.91;82.81
75717;BME280;64333;50.138;14.332;2022-12-16T06:48:07;97168.44;;;-1.93;83.25
75717;BME280;64333;50.138;14.332;2022-12-16T06:50:51;97182.72;;;-1.91;84.51
75717;BME280;64333;50.138;14.332;2022-12-16T06:53:35;97183.56;;;-1.90;83.49
75717;BME280;64333;50.138;14.332;2022-12-16T06:56:19;97192.00;;;-1.90;83.38
75717;BME280;64333;50.138;14.332;2022-12-16T06:59:03;97189.38;;;-1.84;83.45
75717;BME280;64333;50.138;14.332;2022-12-16T07:01:47;97191.03;;;-1.83;83.59
75717;BME280;64333;50.138;14.332;2022-12-16T07:04:30;97186.91;;;-1.88;82.75
75717;BME280;64333;50.138;14.332;2022-12-16T07:07:14;97181.88;;;-1.91;83.47
75717;BME280;64333;50.138;14.332;2022-12-16T07:09:59;97188.53;;;-1.84;83.49
75717;BME280;64333;50.138;14.332;2022-12-16T07:12:42;97195.31;;;-1.85;83.10
75717;BME280;64333;50.138;14.332;2022-12-16T07:15:26;97205.31;;;-1.77;82.81
75717;BME280;64333;50.138;14.332;2022-12-16T07:18:30;97223.84;;;-1.75;82.18
75717;BME280;64333;50.138;14.332;2022-12-16T07:21:14;97213.66;;;-1.71;81.80
75717;BME280;64333;50.138;14.332;2022-12-16T07:23:58;97223.78;;;-1.69;82.48
75717;BME280;64333;50.138;14.332;2022-12-16T07:26:42;97235.50;;;-1.65;81.80
75717;BME280;64333;50.138;14.332;2022-12-16T07:29:26;97231.31;;;-1.68;82.25
75717;BME280;64333;50.138;14.332;2022-12-16T07:32:10;97242.25;;;-1.64;82.33
75717;BME280;64333;50.138;14.332;2022-12-16T07:34:54;97246.41;;;-1.59;82.65
75717;BME280;64333;50.138;14.332;2022-12-16T07:37:38;97243.88;;;-1.60;82.69
75717;BME280;64333;50.138;14.332;2022-12-16T07:40:22;97242.94;;;-1.53;81.75
75717;BME280;64333;50.138;14.332;2022-12-16T07:43:06;97248.88;;;-1.54;82.27
75717;BME280;64333;50.138;14.332;2022-12-16T07:45:50;97269.00;;;-1.45;81.17
75717;BME280;64333;50.138;14.332;2022-12-16T07:48:34;97276.59;;;-1.47;81.82
75717;BME280;64333;50.138;14.332;2022-12-16T07:51:17;97277.44;;;-1.46;81.79
75717;BME280;64333;50.138;14.332;2022-12-16T07:54:02;97268.91;;;-1.39;82.31
75717;BME280;64333;50.138;14.332;2022-12-16T07:56:45;97259.59;;;-1.37;81.72
75717;BME280;64333;50.138;14.332;2022-12-16T07:59:29;97267.97;;;-1.31;82.09
75717;BME280;64333;50.138;14.332;2022-12-16T08:02:13;97268.75;;;-1.26;80.90
75717;BME280;64333;50.138;14.332;2022-12-16T08:04:57;97264.50;;;-1.27;80.83
75717;BME280;64333;50.138;14.332;2022-12-16T08:07:41;97285.56;;;-1.23;81.36
75717;BME280;64333;50.138;14.332;2022-12-16T08:10:25;97264.72;;;-1.40;82.24
75717;BME280;64333;50.138;14.332;2022-12-16T08:13:09;97299.06;;;-1.21;81.36
75717;BME280;64333;50.138;14.332;2022-12-16T08:15:53;97306.72;;;-1.27;81.90
75717;BME280;64333;50.138;14.332;2022-12-16T08:18:37;97300.03;;;-1.31;82.21
75717;BME280;64333;50.138;14.332;2022-12-16T08:21:21;97307.41;;;-1.16;82.79
75717;BME280;64333;50.138;14.332;2022-12-16T08:24:05;97303.19;;;-1.16;82.55
75717;BME280;64333;50.138;14.332;2022-12-16T08:26:49;97317.38;;;-1.04;82.89
75717;BME280;64333;50.138;14.332;2022-12-16T08:29:33;97315.69;;;-1.02;81.32
75717;BME280;64333;50.138;14.332;2022-12-16T08:32:17;97322.41;;;-1.01;83.11
75717;BME280;64333;50.138;14.332;2022-12-16T08:35:01;97327.41;;;-0.98;82.02
75717;BME280;64333;50.138;14.332;2022-12-16T08:37:46;97327.41;;;-0.98;80.71
75717;BME280;64333;50.138;14.332;2022-12-16T08:40:30;97331.50;;;-0.88;82.44
75717;BME280;64333;50.138;14.332;2022-12-16T08:43:14;97344.84;;;-0.76;80.89
75717;BME280;64333;50.138;14.332;2022-12-16T08:45:58;97348.13;;;-0.69;80.40
75717;BME280;64333;50.138;14.332;2022-12-16T08:48:42;97339.59;;;-0.65;80.91
75717;BME280;64333;50.138;14.332;2022-12-16T08:51:37;97333.66;;;-0.63;81.14
75717;BME280;64333;50.138;14.332;2022-12-16T08:54:21;97344.50;;;-0.55;80.87
75717;BME280;64333;50.138;14.332;2022-12-16T08:57:05;97341.78;;;-0.44;81.55
75717;BME280;64333;50.138;14.332;2022-12-16T08:59:49;97342.41;;;-0.30;81.70
75717;BME280;64333;50.138;14.332;2022-12-16T09:02:33;97349.03;;;-0.22;78.47
75717;BME280;64333;50.138;14.332;2022-12-16T09:05:17;97348.91;;;-0.14;78.65
75717;BME280;64333;50.138;14.332;2022-12-16T09:08:02;97347.06;;;-0.05;77.31
75717;BME280;64333;50.138;14.332;2022-12-16T09:10:46;97341.88;;;0.01;77.85
75717;BME280;64333;50.138;14.332;2022-12-16T09:13:41;97361.94;;;0.13;76.12
75717;BME280;64333;50.138;14.332;2022-12-16T09:16:24;97352.44;;;0.22;77.68
75717;BME280;64333;50.138;14.332;2022-12-16T09:19:09;97355.06;;;0.18;74.94
75717;BME280;64333;50.138;14.332;2022-12-16T09:21:53;97359.22;;;0.23;75.68
75717;BME280;64333;50.138;14.332;2022-12-16T09:24:37;97358.16;;;0.35;74.32
75717;BME280;64333;50.138;14.332;2022-12-16T09:27:21;97364.72;;;0.45;75.45
75717;BME280;64333;50.138;14.332;2022-12-16T09:30:05;97367.16;;;0.49;74.07
75717;BME280;64333;50.138;14.332;2022-12-16T09:32:49;97364.41;;;0.61;74.70
75717;BME280;64333;50.138;14.332;2022-12-16T09:35:32;97356.56;;;0.72;73.42
75717;BME280;64333;50.138;14.332;2022-12-16T09:38:16;97361.56;;;0.76;71.97
75717;BME280;64333;50.138;14.332;2022-12-16T09:41:18;97365.66;;;0.83;71.39
75717;BME280;64333;50.138;14.332;2022-12-16T09:49:49;97361.66;;;1.11;69.64
75717;BME280;64333;50.138;14.332;2022-12-16T09:52:43;97351.44;;;1.49;69.24
75717;BME280;64333;50.138;14.332;2022-12-16T09:55:32;97360.16;;;1.76;67.39
75717;BME280;64333;50.138;14.332;2022-12-16T09:58:20;97371.16;;;1.76;69.02
75717;BME280;64333;50.138;14.332;2022-12-16T10:01:09;97374.41;;;1.81;66.45
75717;BME280;64333;50.138;14.332;2022-12-16T10:03:54;97373.84;;;1.70;66.44
75717;BME280;64333;50.138;14.332;2022-12-16T10:06:44;97364.69;;;1.63;66.21
75717;BME280;64333;50.138;14.332;2022-12-16T10:12:59;97389.91;;;1.37;67.32
75717;BME280;64333;50.138;14.332;2022-12-16T10:18:50;97370.59;;;1.29;65.83
75717;BME280;64333;50.138;14.332;2022-12-16T10:24:59;97392.59;;;1.66;66.22
75717;BME280;64333;50.138;14.332;2022-12-16T10:27:47;97378.81;;;1.76;66.27
75717;BME280;64333;50.138;14.332;2022-12-16T10:30:35;97385.16;;;1.94;64.66
75717;BME280;64333;50.138;14.332;2022-12-16T10:33:21;97381.50;;;2.04;63.92
75717;BME280;64333;50.138;14.332;2022-12-16T10:36:13;97378.81;;;2.08;63.53
75717;BME280;64333;50.138;14.332;2022-12-16T10:39:08;97368.75;;;2.37;64.25
75717;BME280;64333;50.138;14.332;2022-12-16T10:41:59;97369.06;;;2.57;62.82
75717;BME280;64333;50.138;14.332;2022-12-16T10:44:51;97364.72;;;2.90;63.87
75717;BME280;64333;50.138;14.332;2022-12-16T10:47:37;97372.97;;;3.27;61.66
75717;BME280;64333;50.138;14.332;2022-12-16T10:50:21;97366.06;;;3.30;59.58
75717;BME280;64333;50.138;14.332;2022-12-16T10:53:24;97379.84;;;3.52;59.71
75717;BME280;64333;50.138;14.332;2022-12-16T10:56:36;97377.59;;;3.43;59.67
75717;BME280;64333;50.138;14.332;2022-12-16T10:59:35;97381.63;;;3.50;60.85
75717;BME280;64333;50.138;14.332;2022-12-16T11:02:22;97365.88;;;3.36;59.75
75717;BME280;64333;50.138;14.332;2022-12-16T11:11:12;97375.94;;;3.13;60.77
75717;BME280;64333;50.138;14.332;2022-12-16T11:17:21;97391.50;;;3.04;62.46
75717;BME280;64333;50.138;14.332;2022-12-16T11:20:26;97386.72;;;3.21;62.28
75717;BME280;64333;50.138;14.332;2022-12-16T11:23:25;97385.16;;;3.17;63.40
75717;BME280;64333;50.138;14.332;2022-12-16T11:26:16;97393.72;;;3.16;63.66
75717;BME280;64333;50.138;14.332;2022-12-16T11:29:03;97401.84;;;3.00;63.88
75717;BME280;64333;50.138;14.332;2022-12-16T11:31:52;97395.78;;;2.73;64.96
75717;BME280;64333;50.138;14.332;2022-12-16T11:34:37;97401.66;;;2.45;66.63
75717;BME280;64333;50.138;14.332;2022-12-16T11:37:23;97398.25;;;2.12;68.39
75717;BME280;64333;50.138;14.332;2022-12-16T11:40:13;97411.44;;;1.94;68.17
75717;BME280;64333;50.138;14.332;2022-12-16T11:43:01;97406.69;;;1.81;69.15
75717;BME280;64333;50.138;14.332;2022-12-16T11:45:48;97404.47;;;1.66;69.49
75717;BME280;64333;50.138;14.332;2022-12-16T11:48:49;97418.16;;;1.62;69.97
75717;BME280;64333;50.138;14.332;2022-12-16T11:51:36;97418.94;;;1.65;70.51
75717;BME280;64333;50.138;14.332;2022-12-16T11:54:25;97422.34;;;1.64;70.23
75717;BME280;64333;50.138;14.332;2022-12-16T11:57:42;97425.16;;;1.52;70.78
75717;BME280;64333;50.138;14.332;2022-12-16T12:00:28;97422.06;;;1.40;71.77
75717;BME280;64333;50.138;14.332;2022-12-16T12:03:19;97416.88;;;1.44;71.04
75717;BME280;64333;50.138;14.332;2022-12-16T12:09:08;97413.34;;;1.50;71.64
75717;BME280;64333;50.138;14.332;2022-12-16T12:12:16;97429.63;;;1.41;71.91
75717;BME280;64333;50.138;14.332;2022-12-16T12:15:24;97419.47;;;1.41;71.97
75717;BME280;64333;50.138;14.332;2022-12-16T12:22:20;97433.44;;;1.22;73.05
75717;BME280;64333;50.138;14.332;2022-12-16T12:30:48;97439.19;;;0.91;75.34
75717;BME280;64333;50.138;14.332;2022-12-16T12:33:59;97435.75;;;0.93;75.55
75717;BME280;64333;50.138;14.332;2022-12-16T12:36:52;97439.03;;;0.98;75.77
75717;BME280;64333;50.138;14.332;2022-12-16T12:39:45;97444.91;;;1.02;75.69
75717;BME280;64333;50.138;14.332;2022-12-16T12:42:47;97447.34;;;1.06;75.96
75717;BME280;64333;50.138;14.332;2022-12-16T12:54:18;97446.34;;;1.13;75.93
75717;BME280;64333;50.138;14.332;2022-12-16T12:57:08;97455.41;;;1.26;75.92
75717;BME280;64333;50.138;14.332;2022-12-16T12:59:57;97459.59;;;1.29;76.11
75717;BME280;64333;50.138;14.332;2022-12-16T13:05:32;97472.97;;;1.37;75.92
75717;BME280;64333;50.138;14.332;2022-12-16T13:08:31;97465.66;;;1.23;76.34
75717;BME280;64333;50.138;14.332;2022-12-16T13:11:16;97465.66;;;1.23;76.89
75717;BME280;64333;50.138;14.332;2022-12-16T13:17:13;97466.44;;;1.27;76.83
75717;BME280;64333;50.138;14.332;2022-12-16T13:19:57;97460.50;;;1.25;76.98
75717;BME280;64333;50.138;14.332;2022-12-16T13:22:43;97474.28;;;1.16;77.73
75717;BME280;64333;50.138;14.332;2022-12-16T13:25:32;97474.28;;;1.16;77.84
75717;BME280;64333;50.138;14.332;2022-12-16T13:28:46;97486.16;;;1.14;78.22
75717;BME280;64333;50.138;14.332;2022-12-16T13:32:21;97497.97;;;1.18;77.74
75717;BME280;64333;50.138;14.332;2022-12-16T13:37:55;97502.94;;;1.24;77.59
75717;BME280;64333;50.138;14.332;2022-12-16T13:41:00;97497.84;;;1.24;77.61
75717;BME280;64333;50.138;14.332;2022-12-16T13:43:58;97500.38;;;1.24;77.87
75717;BME280;64333;50.138;14.332;2022-12-16T13:46:46;97506.38;;;1.22;77.51
75717;BME280;64333;50.138;14.332;2022-12-16T13:49:38;97516.00;;;1.06;78.44
75717;BME280;64333;50.138;14.332;2022-12-16T13:52:52;97516.41;;;0.84;79.31
75717;BME280;64333;50.138;14.332;2022-12-16T13:58:42;97527.69;;;0.69;79.75
75717;BME280;64333;50.138;14.332;2022-12-16T14:01:54;97531.97;;;0.66;80.40
75717;BME280;64333;50.138;14.332;2022-12-16T14:04:48;97534.69;;;0.55;80.87
75717;BME280;64333;50.138;14.332;2022-12-16T14:07:37;97535.59;;;0.53;81.94
75717;BME280;64333;50.138;14.332;2022-12-16T14:13:29;97548.28;;;0.54;82.11
75717;BME280;64333;50.138;14.332;2022-12-16T14:20:05;97565.88;;;0.65;81.36
75717;BME280;64333;50.138;14.332;2022-12-16T14:23:00;97565.00;;;0.67;82.03
75717;BME280;64333;50.138;14.332;2022-12-16T14:25:55;97566.81;;;0.59;82.01
75717;BME280;64333;50.138;14.332;2022-12-16T14:28:40;97572.78;;;0.58;82.04
75717;BME280;64333;50.138;14.332;2022-12-16T14:36:58;97593.75;;;0.15;82.60
75717;BME280;64333;50.138;14.332;2022-12-16T14:39:42;97597.91;;;0.20;82.60
75717;BME280;64333;50.138;14.332;2022-12-16T14:42:27;97598.16;;;0.02;82.32
75717;BME280;64333;50.138;14.332;2022-12-16T14:45:36;97604.19;;;-0.05;82.98
75717;BME280;64333;50.138;14.332;2022-12-16T14:57:21;97613.66;;;-0.15;82.42
75717;BME280;64333;50.138;14.332;2022-12-16T15:02:51;97611.97;;;-0.16;81.56
75717;BME280;64333;50.138;14.332;2022-12-16T15:05:37;97623.81;;;-0.18;81.27
75717;BME280;64333;50.138;14.332;2022-12-16T15:08:21;97627.22;;;-0.19;81.08
75717;BME280;64333;50.138;14.332;2022-12-16T15:11:08;97622.22;;;-0.27;80.22
75717;BME280;64333;50.138;14.332;2022-12-16T15:13:58;97625.75;;;-0.35;81.01
75717;BME280;64333;50.138;14.332;2022-12-16T15:16:43;97646.03;;;-0.38;81.16
75717;BME280;64333;50.138;14.332;2022-12-16T15:19:32;97644.38;;;-0.39;81.11
75717;BME280;64333;50.138;14.332;2022-12-16T15:22:19;97650.31;;;-0.40;80.78
75717;BME280;64333;50.138;14.332;2022-12-16T15:25:04;97649.50;;;-0.42;80.78
75717;BME280;64333;50.138;14.332;2022-12-16T15:27:53;97652.06;;;-0.47;81.07
75717;BME280;64333;50.138;14.332;2022-12-16T15:30:40;97652.91;;;-0.46;81.22
75717;BME280;64333;50.138;14.332;2022-12-16T15:33:27;97653.03;;;-0.58;81.99
75717;BME280;64333;50.138;14.332;2022-12-16T15:36:32;97660.63;;;-0.57;83.24
75717;BME280;64333;50.138;14.332;2022-12-16T15:42:04;97675.94;;;-0.66;83.75
75717;BME280;64333;50.138;14.332;2022-12-16T15:44:50;97681.94;;;-0.73;82.34
75717;BME280;64333;50.138;14.332;2022-12-16T15:47:36;97690.38;;;-0.74;83.15
75717;BME280;64333;50.138;14.332;2022-12-16T15:50:26;97703.09;;;-0.77;81.25
75717;BME280;64333;50.138;14.332;2022-12-16T15:59:34;97715.75;;;-0.78;80.53
75717;BME280;64333;50.138;14.332;2022-12-16T16:05:17;97709.16;;;-0.96;81.29
75717;BME280;64333;50.138;14.332;2022-12-16T16:08:02;97715.84;;;-0.87;84.37
75717;BME280;64333;50.138;14.332;2022-12-16T16:10:45;97710.06;;;-1.01;85.90
75717;BME280;64333;50.138;14.332;2022-12-16T16:13:29;97720.19;;;-1.03;85.88
75717;BME280;64333;50.138;14.332;2022-12-16T16:16:20;97716.88;;;-1.11;86.78
75717;BME280;64333;50.138;14.332;2022-12-16T16:19:07;97720.28;;;-1.13;86.74